sensor_id;sensor_type;location;lat;lon;timestamp;P1;durP1;ratioP1;P2;durP2;ratioP2
2720;SDS011;1368;49.484;11.112;2022-11-25T00:00:25;27.87;;;12.60;;
2720;SDS011;1368;49.484;11.112;2022-11-25T00:02:50;23.33;;;11.97;;
2720;SDS011;1368;49.484;11.112;2022-11-25T00:05:16;22.07;;;11.57;;
2720;SDS011;1368;49.484;11.112;2022-11-25T00:07:41;23.63;;;11.93;;
2720;SDS011;1368;49.484;11.112;2022-11-25T00:10:07;19.63;;;11.97;;
2720;SDS011;1368;49.484;11.112;2022-11-25T00:12:33;27.80;;;12.10;;
2720;SDS011;1368;49.484;11.112;2022-11-25T00:14:59;30.73;;;12.53;;
2720;SDS011;1368;49.484;11.112;2022-11-25T00:17:24;28.20;;;13.80;;
2720;SDS011;1368;49.484;11.112;2022-11-25T00:19:50;19.97;;;11.50;;
2720;SDS011;1368;49.484;11.112;2022-11-25T00:22:15;21.50;;;13.33;;
2720;SDS011;1368;49.484;11.112;2022-11-25T00:24:41;24.60;;;12.83;;
2720;SDS011;1368;49.484;11.112;2022-11-25T00:27:07;20.47;;;12.20;;
2720;SDS011;1368;49.484;11.112;2022-11-25T00:29:33;25.63;;;12.97;;
2720;SDS011;1368;49.484;11.112;2022-11-25T00:31:59;29.00;;;12.70;;
2720;SDS011;1368;49.484;11.112;2022-11-25T00:34:24;26.20;;;12.30;;
2720;SDS011;1368;49.484;11.112;2022-11-25T00:36:50;18.73;;;11.60;;
2720;SDS011;1368;49.484;11.112;2022-11-25T00:39:17;25.33;;;12.47;;
2720;SDS011;1368;49.484;11.112;2022-11-25T00:41:44;23.90;;;13.43;;
2720;SDS011;1368;49.484;11.112;2022-11-25T00:44:29;22.40;;;12.23;;
2720;SDS011;1368;49.484;11.112;2022-11-25T00:47:01;26.83;;;12.03;;
2720;SDS011;1368;49.484;11.112;2022-11-25T00:49:28;22.93;;;13.67;;
2720;SDS011;1368;49.484;11.112;2022-11-25T00:51:54;25.47;;;13.80;;
2720;SDS011;1368;49.484;11.112;2022-11-25T00:54:19;18.53;;;11.93;;
2720;SDS011;1368;49.484;11.112;2022-11-25T00:56:45;24.00;;;13.70;;
2720;SDS011;1368;49.484;11.112;2022-11-25T00:59:10;22.87;;;13.53;;
2720;SDS011;1368;49.484;11.112;2022-11-25T01:01:36;26.10;;;14.40;;
2720;SDS011;1368;49.484;11.112;2022-11-25T01:04:02;26.23;;;12.60;;
2720;SDS011;1368;49.484;11.112;2022-11-25T01:06:29;20.80;;;12.87;;
2720;SDS011;1368;49.484;11.112;2022-11-25T01:08:55;27.50;;;13.90;;
2720;SDS011;1368;49.484;11.112;2022-11-25T01:11:21;23.23;;;12.83;;
2720;SDS011;1368;49.484;11.112;2022-11-25T01:13:47;18.17;;;12.90;;
2720;SDS011;1368;49.484;11.112;2022-11-25T01:16:14;35.83;;;14.50;;
2720;SDS011;1368;49.484;11.112;2022-11-25T01:18:44;27.57;;;13.37;;
2720;SDS011;1368;49.484;11.112;2022-11-25T01:21:16;23.67;;;12.80;;
2720;SDS011;1368;49.484;11.112;2022-11-25T01:23:51;23.50;;;13.57;;
2720;SDS011;1368;49.484;11.112;2022-11-25T01:26:21;17.30;;;12.47;;
2720;SDS011;1368;49.484;11.112;2022-11-25T01:28:50;23.70;;;13.30;;
2720;SDS011;1368;49.484;11.112;2022-11-25T01:31:19;28.20;;;15.70;;
2720;SDS011;1368;49.484;11.112;2022-11-25T01:33:46;21.93;;;12.77;;
2720;SDS011;1368;49.484;11.112;2022-11-25T01:36:17;27.13;;;15.40;;
2720;SDS011;1368;49.484;11.112;2022-11-25T01:38:43;20.60;;;13.13;;
2720;SDS011;1368;49.484;11.112;2022-11-25T01:41:11;24.37;;;13.20;;
2720;SDS011;1368;49.484;11.112;2022-11-25T01:43:38;26.03;;;14.10;;
2720;SDS011;1368;49.484;11.112;2022-11-25T01:48:32;21.33;;;13.23;;
2720;SDS011;1368;49.484;11.112;2022-11-25T01:51:22;22.13;;;13.47;;
2720;SDS011;1368;49.484;11.112;2022-11-25T01:53:51;20.17;;;13.60;;
2720;SDS011;1368;49.484;11.112;2022-11-25T01:56:20;27.10;;;13.60;;
2720;SDS011;1368;49.484;11.112;2022-11-25T01:58:45;26.40;;;14.20;;
2720;SDS011;1368;49.484;11.112;2022-11-25T02:01:13;22.50;;;13.83;;
2720;SDS011;1368;49.484;11.112;2022-11-25T02:03:41;24.13;;;13.77;;
2720;SDS011;1368;49.484;11.112;2022-11-25T02:06:10;21.17;;;12.90;;
2720;SDS011;1368;49.484;11.112;2022-11-25T02:08:49;19.23;;;13.17;;
2720;SDS011;1368;49.484;11.112;2022-11-25T02:11:17;20.20;;;12.90;;
2720;SDS011;1368;49.484;11.112;2022-11-25T02:13:44;17.63;;;12.17;;
2720;SDS011;1368;49.484;11.112;2022-11-25T02:16:12;28.93;;;14.20;;
2720;SDS011;1368;49.484;11.112;2022-11-25T02:18:38;22.70;;;13.20;;
2720;SDS011;1368;49.484;11.112;2022-11-25T02:21:04;25.17;;;14.20;;
2720;SDS011;1368;49.484;11.112;2022-11-25T02:23:46;23.70;;;15.43;;
2720;SDS011;1368;49.484;11.112;2022-11-25T02:26:24;25.00;;;13.17;;
2720;SDS011;1368;49.484;11.112;2022-11-25T02:28:49;27.77;;;13.73;;
2720;SDS011;1368;49.484;11.112;2022-11-25T02:31:21;24.87;;;13.73;;
2720;SDS011;1368;49.484;11.112;2022-11-25T02:33:47;23.47;;;13.70;;
2720;SDS011;1368;49.484;11.112;2022-11-25T02:36:14;25.33;;;17.13;;
2720;SDS011;1368;49.484;11.112;2022-11-25T02:41:17;30.87;;;14.60;;
2720;SDS011;1368;49.484;11.112;2022-11-25T02:43:50;19.30;;;11.80;;
2720;SDS011;1368;49.484;11.112;2022-11-25T02:46:16;24.97;;;13.17;;
2720;SDS011;1368;49.484;11.112;2022-11-25T02:48:43;22.57;;;12.03;;
2720;SDS011;1368;49.484;11.112;2022-11-25T02:51:11;23.17;;;12.80;;
2720;SDS011;1368;49.484;11.112;2022-11-25T02:53:39;22.90;;;13.30;;
2720;SDS011;1368;49.484;11.112;2022-11-25T02:56:05;25.20;;;13.80;;
2720;SDS011;1368;49.484;11.112;2022-11-25T02:58:32;19.70;;;12.87;;
2720;SDS011;1368;49.484;11.112;2022-11-25T03:00:57;18.70;;;12.63;;
2720;SDS011;1368;49.484;11.112;2022-11-25T03:03:23;26.53;;;13.27;;
2720;SDS011;1368;49.484;11.112;2022-11-25T03:05:48;31.00;;;15.67;;
2720;SDS011;1368;49.484;11.112;2022-11-25T03:08:14;21.43;;;12.80;;
2720;SDS011;1368;49.484;11.112;2022-11-25T03:10:40;22.07;;;13.27;;
2720;SDS011;1368;49.484;11.112;2022-11-25T03:13:06;21.67;;;12.13;;
2720;SDS011;1368;49.484;11.112;2022-11-25T03:15:33;21.63;;;13.07;;
2720;SDS011;1368;49.484;11.112;2022-11-25T03:17:59;26.30;;;13.27;;
2720;SDS011;1368;49.484;11.112;2022-11-25T03:20:25;17.93;;;12.47;;
2720;SDS011;1368;49.484;11.112;2022-11-25T03:22:51;18.90;;;12.03;;
2720;SDS011;1368;49.484;11.112;2022-11-25T03:25:17;20.13;;;11.80;;
2720;SDS011;1368;49.484;11.112;2022-11-25T03:27:43;22.20;;;12.63;;
2720;SDS011;1368;49.484;11.112;2022-11-25T03:30:19;21.27;;;10.90;;
2720;SDS011;1368;49.484;11.112;2022-11-25T03:32:46;21.27;;;12.30;;
2720;SDS011;1368;49.484;11.112;2022-11-25T03:35:12;18.60;;;10.50;;
2720;SDS011;1368;49.484;11.112;2022-11-25T03:37:38;23.57;;;12.03;;
2720;SDS011;1368;49.484;11.112;2022-11-25T03:40:04;18.53;;;11.83;;
2720;SDS011;1368;49.484;11.112;2022-11-25T03:42:31;27.13;;;13.13;;
2720;SDS011;1368;49.484;11.112;2022-11-25T03:44:57;19.60;;;11.80;;
2720;SDS011;1368;49.484;11.112;2022-11-25T03:47:22;15.83;;;10.47;;
2720;SDS011;1368;49.484;11.112;2022-11-25T03:49:48;16.50;;;11.20;;
2720;SDS011;1368;49.484;11.112;2022-11-25T03:52:14;20.70;;;12.03;;
2720;SDS011;1368;49.484;11.112;2022-11-25T03:54:40;16.20;;;10.50;;
2720;SDS011;1368;49.484;11.112;2022-11-25T03:57:05;21.90;;;13.63;;
2720;SDS011;1368;49.484;11.112;2022-11-25T03:59:31;16.67;;;10.50;;
2720;SDS011;1368;49.484;11.112;2022-11-25T04:01:56;19.70;;;11.97;;
2720;SDS011;1368;49.484;11.112;2022-11-25T04:04:22;24.30;;;12.53;;
2720;SDS011;1368;49.484;11.112;2022-11-25T04:06:48;19.20;;;10.20;;
2720;SDS011;1368;49.484;11.112;2022-11-25T04:09:13;21.90;;;13.07;;
2720;SDS011;1368;49.484;11.112;2022-11-25T04:11:39;23.37;;;13.63;;
2720;SDS011;1368;49.484;11.112;2022-11-25T04:14:37;21.73;;;10.37;;
2720;SDS011;1368;49.484;11.112;2022-11-25T04:17:02;27.43;;;13.20;;
2720;SDS011;1368;49.484;11.112;2022-11-25T04:19:28;20.40;;;11.53;;
2720;SDS011;1368;49.484;11.112;2022-11-25T04:21:54;22.13;;;12.23;;
2720;SDS011;1368;49.484;11.112;2022-11-25T04:24:23;28.23;;;13.00;;
2720;SDS011;1368;49.484;11.112;2022-11-25T04:26:49;21.03;;;11.93;;
2720;SDS011;1368;49.484;11.112;2022-11-25T04:29:15;21.30;;;11.97;;
2720;SDS011;1368;49.484;11.112;2022-11-25T04:31:40;24.10;;;10.63;;
2720;SDS011;1368;49.484;11.112;2022-11-25T04:34:06;20.60;;;11.30;;
2720;SDS011;1368;49.484;11.112;2022-11-25T04:36:32;15.83;;;10.63;;
2720;SDS011;1368;49.484;11.112;2022-11-25T04:38:57;22.90;;;12.57;;
2720;SDS011;1368;49.484;11.112;2022-11-25T04:41:23;35.10;;;13.90;;
2720;SDS011;1368;49.484;11.112;2022-11-25T04:43:48;17.93;;;10.60;;
2720;SDS011;1368;49.484;11.112;2022-11-25T04:46:18;20.73;;;12.70;;
2720;SDS011;1368;49.484;11.112;2022-11-25T04:48:46;27.00;;;12.53;;
2720;SDS011;1368;49.484;11.112;2022-11-25T04:51:12;21.37;;;13.17;;
2720;SDS011;1368;49.484;11.112;2022-11-25T04:53:38;25.97;;;13.03;;
2720;SDS011;1368;49.484;11.112;2022-11-25T04:56:04;29.00;;;14.00;;
2720;SDS011;1368;49.484;11.112;2022-11-25T04:58:30;32.83;;;15.27;;
2720;SDS011;1368;49.484;11.112;2022-11-25T05:01:14;26.90;;;13.93;;
2720;SDS011;1368;49.484;11.112;2022-11-25T05:03:40;28.53;;;13.60;;
2720;SDS011;1368;49.484;11.112;2022-11-25T05:06:09;28.27;;;12.27;;
2720;SDS011;1368;49.484;11.112;2022-11-25T05:08:35;24.20;;;11.90;;
2720;SDS011;1368;49.484;11.112;2022-11-25T05:11:00;21.50;;;11.50;;
2720;SDS011;1368;49.484;11.112;2022-11-25T05:13:26;25.53;;;12.47;;
2720;SDS011;1368;49.484;11.112;2022-11-25T05:15:52;23.03;;;11.93;;
2720;SDS011;1368;49.484;11.112;2022-11-25T05:18:18;22.87;;;12.53;;
2720;SDS011;1368;49.484;11.112;2022-11-25T05:20:43;25.80;;;13.23;;
2720;SDS011;1368;49.484;11.112;2022-11-25T05:23:09;20.60;;;11.73;;
2720;SDS011;1368;49.484;11.112;2022-11-25T05:25:35;21.73;;;14.20;;
2720;SDS011;1368;49.484;11.112;2022-11-25T05:28:00;25.87;;;12.43;;
2720;SDS011;1368;49.484;11.112;2022-11-25T05:30:27;23.20;;;12.10;;
2720;SDS011;1368;49.484;11.112;2022-11-25T05:32:53;24.50;;;13.47;;
2720;SDS011;1368;49.484;11.112;2022-11-25T05:35:18;20.57;;;13.43;;
2720;SDS011;1368;49.484;11.112;2022-11-25T05:37:45;22.00;;;11.70;;
2720;SDS011;1368;49.484;11.112;2022-11-25T05:40:11;19.90;;;11.80;;
2720;SDS011;1368;49.484;11.112;2022-11-25T05:42:37;31.33;;;15.30;;
2720;SDS011;1368;49.484;11.112;2022-11-25T05:45:03;23.73;;;12.87;;
2720;SDS011;1368;49.484;11.112;2022-11-25T05:47:29;32.17;;;14.90;;
2720;SDS011;1368;49.484;11.112;2022-11-25T05:49:55;25.60;;;12.30;;
2720;SDS011;1368;49.484;11.112;2022-11-25T05:52:20;26.77;;;13.60;;
2720;SDS011;1368;49.484;11.112;2022-11-25T05:54:46;25.30;;;14.03;;
2720;SDS011;1368;49.484;11.112;2022-11-25T05:57:11;27.30;;;13.20;;
2720;SDS011;1368;49.484;11.112;2022-11-25T05:59:37;24.87;;;14.00;;
2720;SDS011;1368;49.484;11.112;2022-11-25T06:02:02;26.70;;;14.77;;
2720;SDS011;1368;49.484;11.112;2022-11-25T06:04:28;33.73;;;15.30;;
2720;SDS011;1368;49.484;11.112;2022-11-25T06:06:54;26.53;;;14.47;;
2720;SDS011;1368;49.484;11.112;2022-11-25T06:09:19;27.73;;;14.73;;
2720;SDS011;1368;49.484;11.112;2022-11-25T06:11:45;21.90;;;12.53;;
2720;SDS011;1368;49.484;11.112;2022-11-25T06:14:10;26.97;;;13.73;;
2720;SDS011;1368;49.484;11.112;2022-11-25T06:16:36;25.73;;;15.23;;
2720;SDS011;1368;49.484;11.112;2022-11-25T06:19:02;25.87;;;15.00;;
2720;SDS011;1368;49.484;11.112;2022-11-25T06:21:31;22.30;;;12.80;;
2720;SDS011;1368;49.484;11.112;2022-11-25T06:23:57;26.37;;;14.47;;
2720;SDS011;1368;49.484;11.112;2022-11-25T06:26:22;32.60;;;15.37;;
2720;SDS011;1368;49.484;11.112;2022-11-25T06:28:51;25.10;;;14.40;;
2720;SDS011;1368;49.484;11.112;2022-11-25T06:31:19;30.97;;;14.67;;
2720;SDS011;1368;49.484;11.112;2022-11-25T06:33:47;24.43;;;15.40;;
2720;SDS011;1368;49.484;11.112;2022-11-25T06:36:14;27.87;;;16.37;;
2720;SDS011;1368;49.484;11.112;2022-11-25T06:38:48;30.23;;;16.30;;
2720;SDS011;1368;49.484;11.112;2022-11-25T06:41:15;28.57;;;15.70;;
2720;SDS011;1368;49.484;11.112;2022-11-25T06:43:41;25.93;;;15.37;;
2720;SDS011;1368;49.484;11.112;2022-11-25T06:46:08;39.73;;;16.93;;
2720;SDS011;1368;49.484;11.112;2022-11-25T06:48:35;30.43;;;17.43;;
2720;SDS011;1368;49.484;11.112;2022-11-25T06:51:02;29.67;;;16.00;;
2720;SDS011;1368;49.484;11.112;2022-11-25T06:53:29;22.47;;;14.63;;
2720;SDS011;1368;49.484;11.112;2022-11-25T06:58:41;28.07;;;14.60;;
2720;SDS011;1368;49.484;11.112;2022-11-25T07:01:18;22.00;;;14.20;;
2720;SDS011;1368;49.484;11.112;2022-11-25T07:03:49;32.10;;;17.20;;
2720;SDS011;1368;49.484;11.112;2022-11-25T07:06:17;31.83;;;18.00;;
2720;SDS011;1368;49.484;11.112;2022-11-25T07:08:44;24.40;;;14.57;;
2720;SDS011;1368;49.484;11.112;2022-11-25T07:11:11;23.47;;;14.10;;
2720;SDS011;1368;49.484;11.112;2022-11-25T07:13:46;25.13;;;14.13;;
2720;SDS011;1368;49.484;11.112;2022-11-25T07:16:12;25.77;;;16.13;;
2720;SDS011;1368;49.484;11.112;2022-11-25T07:18:39;25.60;;;14.83;;
2720;SDS011;1368;49.484;11.112;2022-11-25T07:21:12;26.40;;;15.33;;
2720;SDS011;1368;49.484;11.112;2022-11-25T07:23:40;23.40;;;16.37;;
2720;SDS011;1368;49.484;11.112;2022-11-25T07:26:08;25.60;;;14.37;;
2720;SDS011;1368;49.484;11.112;2022-11-25T07:28:36;22.60;;;14.17;;
2720;SDS011;1368;49.484;11.112;2022-11-25T07:31:09;24.17;;;15.90;;
2720;SDS011;1368;49.484;11.112;2022-11-25T07:33:42;25.70;;;15.10;;
2720;SDS011;1368;49.484;11.112;2022-11-25T07:36:09;29.57;;;13.87;;
2720;SDS011;1368;49.484;11.112;2022-11-25T07:38:36;25.97;;;14.70;;
2720;SDS011;1368;49.484;11.112;2022-11-25T07:41:06;31.20;;;15.50;;
2720;SDS011;1368;49.484;11.112;2022-11-25T07:43:33;28.00;;;14.63;;
2720;SDS011;1368;49.484;11.112;2022-11-25T07:48:37;22.37;;;14.80;;
2720;SDS011;1368;49.484;11.112;2022-11-25T07:51:04;30.03;;;16.03;;
2720;SDS011;1368;49.484;11.112;2022-11-25T07:53:37;25.93;;;14.80;;
2720;SDS011;1368;49.484;11.112;2022-11-25T07:56:02;19.50;;;13.80;;
2720;SDS011;1368;49.484;11.112;2022-11-25T07:58:28;22.77;;;14.40;;
2720;SDS011;1368;49.484;11.112;2022-11-25T08:00:54;21.83;;;12.50;;
2720;SDS011;1368;49.484;11.112;2022-11-25T08:03:19;23.27;;;14.13;;
2720;SDS011;1368;49.484;11.112;2022-11-25T08:05:45;18.13;;;11.10;;
2720;SDS011;1368;49.484;11.112;2022-11-25T08:08:10;17.97;;;11.47;;
2720;SDS011;1368;49.484;11.112;2022-11-25T08:10:38;17.60;;;12.17;;
2720;SDS011;1368;49.484;11.112;2022-11-25T08:13:04;18.70;;;12.97;;
2720;SDS011;1368;49.484;11.112;2022-11-25T08:15:31;22.03;;;11.53;;
2720;SDS011;1368;49.484;11.112;2022-11-25T08:17:57;18.00;;;11.70;;
2720;SDS011;1368;49.484;11.112;2022-11-25T08:20:22;16.53;;;12.23;;
2720;SDS011;1368;49.484;11.112;2022-11-25T08:22:48;20.07;;;12.17;;
2720;SDS011;1368;49.484;11.112;2022-11-25T08:25:14;18.03;;;11.90;;
2720;SDS011;1368;49.484;11.112;2022-11-25T08:27:39;21.27;;;12.80;;
2720;SDS011;1368;49.484;11.112;2022-11-25T08:30:05;18.53;;;11.97;;
2720;SDS011;1368;49.484;11.112;2022-11-25T08:32:39;18.90;;;11.10;;
2720;SDS011;1368;49.484;11.112;2022-11-25T08:35:05;15.77;;;10.93;;
2720;SDS011;1368;49.484;11.112;2022-11-25T08:37:31;18.20;;;10.57;;
2720;SDS011;1368;49.484;11.112;2022-11-25T08:39:56;20.87;;;12.33;;
2720;SDS011;1368;49.484;11.112;2022-11-25T08:42:22;14.43;;;9.80;;
2720;SDS011;1368;49.484;11.112;2022-11-25T08:44:54;19.20;;;11.60;;
2720;SDS011;1368;49.484;11.112;2022-11-25T08:47:20;15.77;;;10.80;;
2720;SDS011;1368;49.484;11.112;2022-11-25T08:49:50;17.23;;;10.17;;
2720;SDS011;1368;49.484;11.112;2022-11-25T08:52:17;15.80;;;10.50;;
2720;SDS011;1368;49.484;11.112;2022-11-25T08:54:43;13.80;;;10.47;;
2720;SDS011;1368;49.484;11.112;2022-11-25T08:57:08;15.20;;;10.27;;
2720;SDS011;1368;49.484;11.112;2022-11-25T08:59:34;17.10;;;9.80;;
2720;SDS011;1368;49.484;11.112;2022-11-25T09:02:00;13.83;;;9.17;;
2720;SDS011;1368;49.484;11.112;2022-11-25T09:04:25;13.50;;;10.20;;
2720;SDS011;1368;49.484;11.112;2022-11-25T09:06:51;14.27;;;9.67;;
2720;SDS011;1368;49.484;11.112;2022-11-25T09:09:16;14.77;;;10.17;;
2720;SDS011;1368;49.484;11.112;2022-11-25T09:11:42;13.40;;;10.03;;
2720;SDS011;1368;49.484;11.112;2022-11-25T09:14:07;15.70;;;9.90;;
2720;SDS011;1368;49.484;11.112;2022-11-25T09:16:33;11.30;;;8.50;;
2720;SDS011;1368;49.484;11.112;2022-11-25T09:18:59;11.23;;;7.80;;
2720;SDS011;1368;49.484;11.112;2022-11-25T09:21:25;10.47;;;8.00;;
2720;SDS011;1368;49.484;11.112;2022-11-25T09:23:51;12.17;;;8.40;;
2720;SDS011;1368;49.484;11.112;2022-11-25T09:26:22;11.70;;;6.97;;
2720;SDS011;1368;49.484;11.112;2022-11-25T09:28:50;9.83;;;6.97;;
2720;SDS011;1368;49.484;11.112;2022-11-25T09:31:15;11.20;;;7.67;;
2720;SDS011;1368;49.484;11.112;2022-11-25T09:33:42;13.30;;;8.03;;
2720;SDS011;1368;49.484;11.112;2022-11-25T09:36:08;9.63;;;7.17;;
2720;SDS011;1368;49.484;11.112;2022-11-25T09:38:36;11.27;;;7.20;;
2720;SDS011;1368;49.484;11.112;2022-11-25T09:44:04;13.23;;;8.23;;
2720;SDS011;1368;49.484;11.112;2022-11-25T09:46:59;12.10;;;7.60;;
2720;SDS011;1368;49.484;11.112;2022-11-25T09:55:03;9.77;;;6.53;;
2720;SDS011;1368;49.484;11.112;2022-11-25T09:57:42;13.97;;;8.10;;
2720;SDS011;1368;49.484;11.112;2022-11-25T10:00:17;11.17;;;8.10;;
2720;SDS011;1368;49.484;11.112;2022-11-25T10:05:27;11.33;;;7.43;;
2720;SDS011;1368;49.484;11.112;2022-11-25T10:08:09;9.43;;;6.20;;
2720;SDS011;1368;49.484;11.112;2022-11-25T10:10:45;10.30;;;6.80;;
2720;SDS011;1368;49.484;11.112;2022-11-25T10:13:17;8.10;;;6.30;;
2720;SDS011;1368;49.484;11.112;2022-11-25T10:15:49;8.80;;;6.37;;
2720;SDS011;1368;49.484;11.112;2022-11-25T10:18:24;9.47;;;5.40;;
2720;SDS011;1368;49.484;11.112;2022-11-25T10:20:58;8.70;;;5.60;;
2720;SDS011;1368;49.484;11.112;2022-11-25T10:23:29;8.77;;;5.07;;
2720;SDS011;1368;49.484;11.112;2022-11-25T10:26:00;8.30;;;5.57;;
2720;SDS011;1368;49.484;11.112;2022-11-25T10:28:34;7.70;;;4.57;;
2720;SDS011;1368;49.484;11.112;2022-11-25T10:33:47;7.50;;;5.10;;
2720;SDS011;1368;49.484;11.112;2022-11-25T10:36:54;7.83;;;4.83;;
2720;SDS011;1368;49.484;11.112;2022-11-25T10:41:44;7.73;;;4.87;;
2720;SDS011;1368;49.484;11.112;2022-11-25T10:44:25;5.83;;;4.33;;
2720;SDS011;1368;49.484;11.112;2022-11-25T10:55:30;7.20;;;4.33;;
2720;SDS011;1368;49.484;11.112;2022-11-25T10:57:57;9.00;;;5.07;;
2720;SDS011;1368;49.484;11.112;2022-11-25T11:00:31;7.40;;;5.27;;
2720;SDS011;1368;49.484;11.112;2022-11-25T11:03:00;6.87;;;5.47;;
2720;SDS011;1368;49.484;11.112;2022-11-25T11:05:48;5.40;;;4.47;;
2720;SDS011;1368;49.484;11.112;2022-11-25T11:08:19;9.10;;;5.33;;
2720;SDS011;1368;49.484;11.112;2022-11-25T11:10:46;9.00;;;5.67;;
2720;SDS011;1368;49.484;11.112;2022-11-25T11:13:31;6.80;;;4.10;;
2720;SDS011;1368;49.484;11.112;2022-11-25T11:15:57;8.23;;;5.13;;
2720;SDS011;1368;49.484;11.112;2022-11-25T11:18:27;6.37;;;4.83;;
2720;SDS011;1368;49.484;11.112;2022-11-25T11:21:07;5.70;;;3.97;;
2720;SDS011;1368;49.484;11.112;2022-11-25T11:24:02;5.17;;;4.20;;
2720;SDS011;1368;49.484;11.112;2022-11-25T11:26:47;7.87;;;4.93;;
2720;SDS011;1368;49.484;11.112;2022-11-25T11:29:34;6.73;;;4.93;;
2720;SDS011;1368;49.484;11.112;2022-11-25T11:32:00;9.47;;;5.00;;
2720;SDS011;1368;49.484;11.112;2022-11-25T11:37:16;7.23;;;5.13;;
2720;SDS011;1368;49.484;11.112;2022-11-25T11:50:34;9.90;;;5.97;;
2720;SDS011;1368;49.484;11.112;2022-11-25T12:03:59;6.33;;;5.20;;
2720;SDS011;1368;49.484;11.112;2022-11-25T12:06:39;6.47;;;5.03;;
2720;SDS011;1368;49.484;11.112;2022-11-25T12:09:11;9.80;;;5.33;;
2720;SDS011;1368;49.484;11.112;2022-11-25T12:11:42;7.10;;;5.33;;
2720;SDS011;1368;49.484;11.112;2022-11-25T12:17:12;8.03;;;5.17;;
2720;SDS011;1368;49.484;11.112;2022-11-25T12:23:01;23.67;;;15.33;;
2720;SDS011;1368;49.484;11.112;2022-11-25T12:25:35;11.40;;;8.10;;
2720;SDS011;1368;49.484;11.112;2022-11-25T12:28:14;7.77;;;5.70;;
2720;SDS011;1368;49.484;11.112;2022-11-25T12:36:38;7.60;;;4.90;;
2720;SDS011;1368;49.484;11.112;2022-11-25T12:41:44;6.93;;;5.63;;
2720;SDS011;1368;49.484;11.112;2022-11-25T12:44:19;8.27;;;5.70;;
2720;SDS011;1368;49.484;11.112;2022-11-25T12:46:49;10.60;;;5.47;;
2720;SDS011;1368;49.484;11.112;2022-11-25T13:03:11;7.30;;;5.53;;
2720;SDS011;1368;49.484;11.112;2022-11-25T13:08:58;7.23;;;6.53;;
2720;SDS011;1368;49.484;11.112;2022-11-25T13:14:27;8.20;;;5.40;;
2720;SDS011;1368;49.484;11.112;2022-11-25T13:16:54;12.07;;;5.93;;
2720;SDS011;1368;49.484;11.112;2022-11-25T13:19:21;7.40;;;5.30;;
2720;SDS011;1368;49.484;11.112;2022-11-25T13:22:03;8.33;;;5.97;;
2720;SDS011;1368;49.484;11.112;2022-11-25T13:24:33;9.83;;;5.80;;
2720;SDS011;1368;49.484;11.112;2022-11-25T13:27:04;8.00;;;5.57;;
2720;SDS011;1368;49.484;11.112;2022-11-25T13:32:23;8.90;;;5.97;;
2720;SDS011;1368;49.484;11.112;2022-11-25T13:34:51;10.27;;;6.30;;
2720;SDS011;1368;49.484;11.112;2022-11-25T13:37:45;9.30;;;6.57;;
2720;SDS011;1368;49.484;11.112;2022-11-25T13:42:54;11.20;;;7.30;;
2720;SDS011;1368;49.484;11.112;2022-11-25T13:47:52;15.10;;;10.07;;
2720;SDS011;1368;49.484;11.112;2022-11-25T13:50:20;16.67;;;12.00;;
2720;SDS011;1368;49.484;11.112;2022-11-25T13:52:48;12.77;;;9.97;;
2720;SDS011;1368;49.484;11.112;2022-11-25T13:55:30;18.83;;;11.53;;
2720;SDS011;1368;49.484;11.112;2022-11-25T14:03:52;16.20;;;10.53;;
2720;SDS011;1368;49.484;11.112;2022-11-25T14:12:13;14.70;;;11.07;;
2720;SDS011;1368;49.484;11.112;2022-11-25T14:26:02;15.63;;;11.00;;
2720;SDS011;1368;49.484;11.112;2022-11-25T14:31:10;16.30;;;11.47;;
2720;SDS011;1368;49.484;11.112;2022-11-25T14:33:44;16.33;;;11.03;;
2720;SDS011;1368;49.484;11.112;2022-11-25T14:36:20;18.60;;;11.97;;
2720;SDS011;1368;49.484;11.112;2022-11-25T14:38:56;19.60;;;13.50;;
2720;SDS011;1368;49.484;11.112;2022-11-25T14:41:31;18.43;;;12.40;;
2720;SDS011;1368;49.484;11.112;2022-11-25T14:44:05;20.53;;;14.80;;
2720;SDS011;1368;49.484;11.112;2022-11-25T14:46:49;18.93;;;13.60;;
2720;SDS011;1368;49.484;11.112;2022-11-25T14:49:18;22.30;;;14.07;;
2720;SDS011;1368;49.484;11.112;2022-11-25T14:51:46;18.40;;;13.30;;
2720;SDS011;1368;49.484;11.112;2022-11-25T14:54:13;17.93;;;11.77;;
2720;SDS011;1368;49.484;11.112;2022-11-25T14:56:39;16.40;;;13.30;;
2720;SDS011;1368;49.484;11.112;2022-11-25T14:59:06;16.80;;;13.07;;
2720;SDS011;1368;49.484;11.112;2022-11-25T15:01:34;19.50;;;13.47;;
2720;SDS011;1368;49.484;11.112;2022-11-25T15:06:52;16.60;;;11.63;;
2720;SDS011;1368;49.484;11.112;2022-11-25T15:11:50;18.03;;;13.40;;
2720;SDS011;1368;49.484;11.112;2022-11-25T15:14:23;17.83;;;12.93;;
2720;SDS011;1368;49.484;11.112;2022-11-25T15:16:54;19.13;;;13.00;;
2720;SDS011;1368;49.484;11.112;2022-11-25T15:19:22;20.10;;;14.10;;
2720;SDS011;1368;49.484;11.112;2022-11-25T15:21:53;24.43;;;17.17;;
2720;SDS011;1368;49.484;11.112;2022-11-25T15:24:27;18.30;;;13.80;;
2720;SDS011;1368;49.484;11.112;2022-11-25T15:26:55;20.67;;;16.20;;
2720;SDS011;1368;49.484;11.112;2022-11-25T15:29:23;26.07;;;18.80;;
2720;SDS011;1368;49.484;11.112;2022-11-25T15:31:50;23.30;;;17.77;;
2720;SDS011;1368;49.484;11.112;2022-11-25T15:34:17;26.70;;;17.93;;
2720;SDS011;1368;49.484;11.112;2022-11-25T15:36:45;30.07;;;20.20;;
2720;SDS011;1368;49.484;11.112;2022-11-25T15:39:12;25.97;;;17.50;;
2720;SDS011;1368;49.484;11.112;2022-11-25T15:41:41;26.30;;;18.37;;
2720;SDS011;1368;49.484;11.112;2022-11-25T15:44:15;25.10;;;18.30;;
2720;SDS011;1368;49.484;11.112;2022-11-25T15:46:51;28.13;;;18.47;;
2720;SDS011;1368;49.484;11.112;2022-11-25T15:49:20;28.60;;;20.03;;
2720;SDS011;1368;49.484;11.112;2022-11-25T15:51:56;35.43;;;23.53;;
2720;SDS011;1368;49.484;11.112;2022-11-25T15:54:28;34.67;;;22.43;;
2720;SDS011;1368;49.484;11.112;2022-11-25T15:57:01;36.40;;;25.30;;
2720;SDS011;1368;49.484;11.112;2022-11-25T16:18:39;37.67;;;28.37;;
2720;SDS011;1368;49.484;11.112;2022-11-25T16:26:51;45.30;;;29.40;;
2720;SDS011;1368;49.484;11.112;2022-11-25T16:29:26;44.47;;;30.43;;
2720;SDS011;1368;49.484;11.112;2022-11-25T16:31:57;34.83;;;27.00;;
2720;SDS011;1368;49.484;11.112;2022-11-25T16:34:23;38.90;;;32.40;;
2720;SDS011;1368;49.484;11.112;2022-11-25T16:36:50;44.83;;;32.37;;
2720;SDS011;1368;49.484;11.112;2022-11-25T16:39:16;39.40;;;28.80;;
2720;SDS011;1368;49.484;11.112;2022-11-25T16:41:42;50.30;;;30.60;;
2720;SDS011;1368;49.484;11.112;2022-11-25T16:44:19;34.80;;;25.63;;
2720;SDS011;1368;49.484;11.112;2022-11-25T16:46:47;27.90;;;22.13;;
2720;SDS011;1368;49.484;11.112;2022-11-25T16:49:14;28.50;;;21.97;;
2720;SDS011;1368;49.484;11.112;2022-11-25T16:51:42;31.60;;;22.73;;
2720;SDS011;1368;49.484;11.112;2022-11-25T16:54:08;34.50;;;23.23;;
2720;SDS011;1368;49.484;11.112;2022-11-25T16:56:35;38.80;;;23.77;;
2720;SDS011;1368;49.484;11.112;2022-11-25T16:59:03;35.03;;;24.00;;
2720;SDS011;1368;49.484;11.112;2022-11-25T17:01:29;37.03;;;24.17;;
2720;SDS011;1368;49.484;11.112;2022-11-25T17:03:56;30.73;;;21.40;;
2720;SDS011;1368;49.484;11.112;2022-11-25T17:06:23;28.60;;;21.03;;
2720;SDS011;1368;49.484;11.112;2022-11-25T17:08:51;27.50;;;21.83;;
2720;SDS011;1368;49.484;11.112;2022-11-25T17:11:20;28.90;;;19.13;;
2720;SDS011;1368;49.484;11.112;2022-11-25T17:13:53;22.67;;;16.63;;
2720;SDS011;1368;49.484;11.112;2022-11-25T17:16:21;32.73;;;19.00;;
2720;SDS011;1368;49.484;11.112;2022-11-25T17:18:49;31.80;;;18.70;;
2720;SDS011;1368;49.484;11.112;2022-11-25T17:21:17;26.20;;;18.63;;
2720;SDS011;1368;49.484;11.112;2022-11-25T17:23:43;35.23;;;24.87;;
2720;SDS011;1368;49.484;11.112;2022-11-25T17:26:17;41.50;;;25.97;;